Terminal Aerodrome Forecast
Issued by NWS

Home | Current Version | Previous Version | Text Only | Print | Product List | Glossary On
Versions: 1 2 3 4 5 6 7 8 9 10 11 12
000
FTUS45 KRIW 202300
TAFBPI
TAF
KBPI 202320Z 2100/2124 22007KT P6SM FEW100
     FM210700 VRB06KT P6SM SCT060 BKN130
     FM211300 16007KT P6SM VCSH SCT035 BKN060
     FM211800 22015G24KT P6SM VCSH BKN030 OVC050
     FM212300 27013KT P6SM VCSH SCT030 BKN060=

USA.gov is the U.S. government's official web portal to all federal, state and local government web resources and services.